Main page
METAR-TAF:

METAR-TAF

Airports :

Troyes – Barberey Airport

Troyes, France

latitude: 48-20N, longitude: 004-01E, elevation: 118 m

Current weather observation

The report was made 21 minutes ago, at 23:00 UTC
Wind 1 kt from the North/Northwest
Temperature 12°C
Humidity 82%
Pressure 998 hPa
Visibility 10 km or more
no clouds below 1500 m and no cumulonimbus

METAR: LFQB 222300Z AUTO 34001KT CAVOK 12/09 Q0998

Time: 01:21 (23:21 UTC)


TAF: missing

Weather observations and forecasts of more than 4000 airports (METAR and TAF reports).

The available stations are represented by yellow and red dots on the map.

Hover mouse over dot to see the name of the station.

Then click to see weather observations and forecasts.

To change the map : click on the green buttons with a black cross to zoom in, on the green button with a dash to zoom out, or on the green arrows for adjacent maps.


METAR-TAF: